Time;durP1;ratioP1;P1;durP2;ratioP2;P2;SDS_P1;SDS_P2;PMS_P1;PMS_P2;Temp;Humidity;BMP_temperature;BMP_pressure;BME280_temperature;BME280_humidity;BME280_pressure;Samples;Min_cycle;Max_cycle;Signal;HPM_P1;HPM_P2
2021/05/02 00:01:28;;;;;;;15.00;6.85;;;15.50;99.90;;;;;;4240732;27;20432;-62
2021/05/02 00:03:30;;;;;;;15.93;6.13;;;15.50;99.90;;;;;;4239806;27;20043;-62
2021/05/02 00:05:35;;;;;;;15.85;6.38;;;15.40;99.90;;;;;;4239659;27;20079;-63
2021/05/02 00:07:36;;;;;;;18.40;6.13;;;15.40;99.90;;;;;;4241695;27;20073;-63
2021/05/02 00:09:37;;;;;;;14.05;5.95;;;15.50;99.90;;;;;;4238947;27;20039;-63
2021/05/02 00:11:39;;;;;;;13.63;5.57;;;15.40;99.90;;;;;;4241591;27;20471;-63
2021/05/02 00:13:41;;;;;;;14.57;6.03;;;15.50;99.90;;;;;;4240447;27;20791;-62
2021/05/02 00:15:42;;;;;;;18.55;9.55;;;15.50;99.90;;;;;;4241600;27;20015;-62
2021/05/02 00:17:46;;;;;;;31.95;19.58;;;15.60;99.90;;;;;;4240234;27;20019;-62
2021/05/02 00:19:48;;;;;;;27.80;13.25;;;15.60;99.90;;;;;;4241152;27;20023;-62
2021/05/02 00:21:50;;;;;;;17.92;8.80;;;15.50;99.90;;;;;;4240787;27;20088;-61
2021/05/02 00:23:52;;;;;;;14.93;8.98;;;15.50;99.90;;;;;;4240574;27;20076;-66
2021/05/02 00:25:53;;;;;;;16.05;7.13;;;15.50;99.90;;;;;;4239861;27;20097;-63
2021/05/02 00:27:54;;;;;;;19.33;7.50;;;15.50;99.90;;;;;;4240116;27;20023;-63
2021/05/02 00:29:55;;;;;;;15.63;7.43;;;15.50;99.90;;;;;;4240481;27;20496;-65
2021/05/02 00:31:58;;;;;;;23.50;6.60;;;15.40;99.90;;;;;;4240216;27;20096;-65
2021/05/02 00:33:59;;;;;;;17.10;7.35;;;15.40;99.90;;;;;;4241013;27;20432;-62
2021/05/02 00:36:01;;;;;;;11.00;6.15;;;15.30;99.90;;;;;;4239787;27;20031;-66
2021/05/02 00:38:02;;;;;;;20.15;7.68;;;15.30;99.90;;;;;;4240982;27;20072;-64
2021/05/02 00:40:12;;;;;;;15.52;7.85;;;15.20;99.90;;;;;;4239530;27;20104;-63
2021/05/02 00:42:26;;;;;;;18.23;9.40;;;15.20;99.90;;;;;;4240812;27;20503;-62
2021/05/02 00:44:45;;;;;;;16.85;8.98;;;15.20;99.90;;;;;;4239481;27;20031;-62
2021/05/02 00:46:53;;;;;;;23.48;10.18;;;15.10;99.90;;;;;;4240628;27;20023;-63
2021/05/02 00:49:11;;;;;;;17.85;8.27;;;15.20;99.90;;;;;;4239535;27;20027;-63
2021/05/02 00:51:18;;;;;;;15.70;9.02;;;15.10;99.90;;;;;;4240869;27;20027;-63
2021/05/02 00:53:28;;;;;;;16.65;8.10;;;15.10;99.90;;;;;;4239841;27;20088;-63
2021/05/02 00:55:37;;;;;;;19.02;9.60;;;15.10;99.90;;;;;;4240087;27;20035;-63
2021/05/02 00:57:41;;;;;;;20.52;9.82;;;15.10;99.90;;;;;;4239494;27;20540;-64
2021/05/02 01:00:10;;;;;;;19.98;9.60;;;15.10;99.90;;;;;;4240044;27;20035;-63
2021/05/02 01:02:13;;;;;;;17.80;9.18;;;15.20;99.90;;;;;;4238471;27;20429;-63
2021/05/02 01:04:23;;;;;;;16.52;8.63;;;15.10;99.90;;;;;;4240219;27;20113;-63
2021/05/02 01:06:29;;;;;;;11.90;7.72;;;15.10;99.90;;;;;;4239110;27;20039;-62
2021/05/02 01:08:31;;;;;;;15.50;6.45;;;15.00;99.90;;;;;;4240425;27;20067;-62
2021/05/02 01:10:32;;;;;;;12.40;7.50;;;15.00;99.90;;;;;;4239390;27;20182;-63
2021/05/02 01:12:57;;;;;;;16.67;7.30;;;15.00;99.90;;;;;;4240528;27;20035;-63
2021/05/02 01:14:59;;;;;;;12.53;5.43;;;15.00;99.90;;;;;;4239173;27;20043;-63
2021/05/02 01:17:03;;;;;;;13.82;6.00;;;15.00;99.90;;;;;;4240146;27;20031;-62
2021/05/02 01:19:10;;;;;;;17.23;6.95;;;15.00;99.90;;;;;;4238669;27;20039;-70
2021/05/02 01:21:14;;;;;;;14.80;6.95;;;15.00;99.90;;;;;;4239754;27;20043;-62
2021/05/02 01:23:18;;;;;;;14.65;7.10;;;15.00;99.90;;;;;;4239154;27;20027;-63
2021/05/02 01:25:21;;;;;;;14.90;7.85;;;14.90;99.90;;;;;;4239488;27;20030;-63
2021/05/02 01:27:25;;;;;;;18.38;8.57;;;14.90;99.90;;;;;;4238678;27;20016;-63
2021/05/02 01:29:27;;;;;;;14.13;8.52;;;14.90;99.90;;;;;;4239784;27;20421;-63
2021/05/02 01:31:28;;;;;;;21.65;9.43;;;14.90;99.90;;;;;;4238773;27;20076;-66
2021/05/02 01:33:30;;;;;;;15.73;8.55;;;14.90;99.90;;;;;;4240027;27;20076;-63
2021/05/02 01:35:31;;;;;;;17.40;8.88;;;14.90;99.90;;;;;;4238972;27;20027;-63
2021/05/02 01:37:32;;;;;;;18.95;9.15;;;14.90;99.90;;;;;;4239783;27;20050;-63
2021/05/02 01:39:34;;;;;;;12.43;7.10;;;14.90;99.90;;;;;;4239145;27;20080;-63
2021/05/02 01:41:36;;;;;;;14.43;8.32;;;14.90;99.90;;;;;;4239359;27;20791;-69
2021/05/02 01:43:37;;;;;;;18.75;8.52;;;14.90;99.90;;;;;;4238403;27;20100;-63
2021/05/02 01:45:38;;;;;;;19.58;8.50;;;15.00;99.90;;;;;;4239202;27;20035;-63
2021/05/02 01:47:48;;;;;;;14.95;8.00;;;15.00;99.90;;;;;;4239430;27;20084;-63
2021/05/02 01:49:56;;;;;;;15.02;8.98;;;15.00;99.90;;;;;;4238808;27;20523;-63
2021/05/02 01:51:59;;;;;;;15.55;8.55;;;15.00;99.90;;;;;;4239189;27;20027;-63
2021/05/02 01:54:02;;;;;;;17.98;9.32;;;15.00;99.90;;;;;;4238941;28;20059;-63
2021/05/02 01:56:04;;;;;;;16.67;9.27;;;15.00;99.90;;;;;;4239285;28;20031;-65
2021/05/02 01:58:07;;;;;;;14.55;8.93;;;15.00;99.90;;;;;;4238798;28;20057;-63
2021/05/02 02:00:33;;;;;;;15.43;10.35;;;15.00;99.90;;;;;;4239864;28;20072;-63
2021/05/02 02:02:36;;;;;;;19.25;8.80;;;15.00;99.90;;;;;;4234313;27;20031;-65
2021/05/02 02:04:38;;;;;;;17.85;7.15;;;15.00;99.90;;;;;;4239306;27;20108;-64
2021/05/02 02:06:41;;;;;;;16.27;6.93;;;15.00;99.90;;;;;;4238725;27;20096;-64
2021/05/02 02:08:43;;;;;;;10.88;6.40;;;15.00;99.90;;;;;;4239862;27;20443;-63
2021/05/02 02:10:46;;;;;;;12.85;6.25;;;15.00;99.90;;;;;;4238521;27;20035;-63
2021/05/02 02:12:51;;;;;;;11.18;6.00;;;15.00;99.90;;;;;;4239885;27;20027;-63
2021/05/02 02:14:52;;;;;;;9.80;5.50;;;14.90;99.90;;;;;;4238601;28;20452;-63
2021/05/02 02:16:55;;;;;;;14.20;7.55;;;14.90;99.90;;;;;;4239760;28;20047;-63
2021/05/02 02:18:56;;;;;;;14.27;8.45;;;14.90;99.90;;;;;;4238472;28;20431;-62
2021/05/02 02:20:59;;;;;;;18.45;8.38;;;14.90;99.90;;;;;;4239401;28;20076;-63
2021/05/02 02:23:07;;;;;;;15.93;8.07;;;14.80;99.90;;;;;;4238978;28;20027;-63
2021/05/02 02:25:10;;;;;;;11.00;6.50;;;14.80;99.90;;;;;;4239258;28;20084;-63
2021/05/02 02:27:12;;;;;;;14.57;5.40;;;14.70;99.90;;;;;;4238744;28;20478;-63
2021/05/02 02:29:14;;;;;;;13.90;5.73;;;14.70;99.90;;;;;;4239896;27;20120;-63
2021/05/02 02:31:17;;;;;;;11.50;5.53;;;14.70;99.90;;;;;;4238928;28;20024;-63
2021/05/02 02:33:18;;;;;;;16.03;4.80;;;14.70;99.90;;;;;;4238212;27;20027;-63
2021/05/02 02:35:24;;;;;;;10.43;3.80;;;14.70;99.90;;;;;;4239569;28;20076;-63
2021/05/02 02:37:27;;;;;;;13.63;4.50;;;14.70;99.90;;;;;;4239011;28;20027;-63
2021/05/02 02:39:29;;;;;;;10.33;3.70;;;14.80;99.90;;;;;;4239103;28;20586;-63
2021/05/02 02:41:35;;;;;;;8.77;4.72;;;14.90;99.90;;;;;;4239034;27;20031;-64
2021/05/02 02:43:37;;;;;;;10.17;3.40;;;14.90;99.90;;;;;;4242591;27;20761;-63
2021/05/02 02:45:39;;;;;;;11.10;3.23;;;15.00;99.90;;;;;;4241136;27;20035;-62
2021/05/02 02:47:53;;;;;;;11.33;3.23;;;15.00;99.90;;;;;;4242530;27;20035;-66
2021/05/02 02:49:57;;;;;;;8.60;3.27;;;15.10;99.90;;;;;;4241461;27;20084;-63
2021/05/02 02:52:01;;;;;;;8.73;3.23;;;15.10;99.90;;;;;;4242713;27;20031;-64
2021/05/02 02:54:06;;;;;;;10.38;3.10;;;15.10;99.90;;;;;;4241799;27;20095;-65
2021/05/02 02:56:30;;;;;;;10.07;3.60;;;15.10;99.90;;;;;;4242374;27;20057;-63
2021/05/02 02:58:46;;;;;;;7.43;3.83;;;15.10;99.90;;;;;;4241355;27;20027;-63
2021/05/02 03:00:48;;;;;;;11.82;3.40;;;15.20;99.90;;;;;;4242443;27;20027;-63
2021/05/02 03:03:13;;;;;;;9.53;3.87;;;15.10;99.90;;;;;;4240812;27;20080;-63
2021/05/02 03:05:16;;;;;;;10.80;3.43;;;15.10;99.90;;;;;;4242312;27;20084;-63
2021/05/02 03:07:21;;;;;;;9.97;3.47;;;15.10;99.90;;;;;;4241322;27;20035;-63
2021/05/02 03:09:26;;;;;;;12.57;3.97;;;15.00;99.90;;;;;;4242599;27;20087;-63
2021/05/02 03:11:27;;;;;;;11.85;3.55;;;15.00;99.90;;;;;;4241002;27;20100;-62
2021/05/02 03:13:28;;;;;;;9.80;3.57;;;14.90;99.90;;;;;;4242925;27;20027;-63
2021/05/02 03:15:29;;;;;;;9.07;3.23;;;14.90;99.90;;;;;;4241062;27;20042;-62
2021/05/02 03:17:32;;;;;;;8.33;3.27;;;14.80;99.90;;;;;;4242316;27;20475;-63
2021/05/02 03:19:37;;;;;;;8.93;3.83;;;14.80;99.90;;;;;;4240979;27;20058;-63
2021/05/02 03:21:44;;;;;;;9.48;4.40;;;14.80;99.90;;;;;;4242143;27;20015;-63
2021/05/02 03:23:48;;;;;;;8.77;3.28;;;14.90;99.90;;;;;;4241012;27;20072;-62
2021/05/02 03:25:51;;;;;;;11.30;3.23;;;14.90;99.90;;;;;;4241967;27;20421;-63
2021/05/02 03:28:06;;;;;;;9.67;3.57;;;14.90;99.90;;;;;;4241181;27;21102;-63
2021/05/02 03:30:08;;;;;;;11.27;3.80;;;15.00;99.90;;;;;;4241972;27;20429;-63
2021/05/02 03:32:13;;;;;;;6.07;2.97;;;15.00;99.90;;;;;;4239627;27;20088;-63
2021/05/02 03:34:17;;;;;;;9.77;3.17;;;15.10;99.90;;;;;;4241694;27;20487;-63
2021/05/02 03:36:27;;;;;;;9.47;3.40;;;15.10;99.90;;;;;;4241084;27;20092;-63
2021/05/02 03:38:39;;;;;;;11.27;3.35;;;15.20;99.90;;;;;;4241643;27;20035;-63
2021/05/02 03:40:40;;;;;;;9.90;3.27;;;15.30;99.90;;;;;;4240902;27;20031;-62
2021/05/02 03:42:41;;;;;;;10.23;3.20;;;15.30;99.90;;;;;;4241993;27;20027;-63
2021/05/02 03:44:43;;;;;;;13.80;3.05;;;15.40;99.90;;;;;;4241717;27;20051;-64
2021/05/02 03:46:44;;;;;;;7.95;3.00;;;15.40;99.90;;;;;;4240959;27;20574;-66
2021/05/02 03:48:45;;;;;;;9.00;2.80;;;15.50;99.90;;;;;;4241723;27;20043;-63
2021/05/02 03:50:46;;;;;;;9.18;2.97;;;15.50;99.90;;;;;;4240809;27;20035;-61
2021/05/02 03:52:47;;;;;;;12.60;3.43;;;15.50;99.90;;;;;;4240680;27;20092;-63
2021/05/02 03:54:53;;;;;;;7.93;3.33;;;15.60;99.90;;;;;;4240401;27;20417;-68
2021/05/02 03:56:54;;;;;;;7.65;2.80;;;15.70;99.90;;;;;;4242012;27;20092;-63
2021/05/02 03:59:06;;;;;;;5.88;2.78;;;15.70;99.90;;;;;;4240775;27;20031;-63
2021/05/02 04:01:07;;;;;;;7.13;3.15;;;15.80;99.90;;;;;;4239868;27;20023;-63
2021/05/02 04:03:08;;;;;;;6.35;3.08;;;15.80;99.90;;;;;;4240578;27;20479;-63
2021/05/02 04:05:10;;;;;;;7.63;3.75;;;15.90;99.90;;;;;;4241979;27;20099;-63
2021/05/02 04:07:13;;;;;;;8.82;3.00;;;16.00;99.90;;;;;;4239282;27;20417;-63
2021/05/02 04:09:15;;;;;;;7.68;3.92;;;16.10;99.90;;;;;;4241295;27;20035;-66
2021/05/02 04:11:16;;;;;;;13.38;3.88;;;16.10;99.90;;;;;;4239999;27;20035;-63
2021/05/02 04:13:17;;;;;;;6.85;3.10;;;16.10;99.90;;;;;;4241485;27;20027;-63
2021/05/02 04:15:19;;;;;;;6.93;3.08;;;16.20;99.90;;;;;;4240490;27;20027;-63
2021/05/02 04:17:20;;;;;;;6.55;2.72;;;16.20;99.90;;;;;;4241231;27;20039;-63
2021/05/02 04:19:22;;;;;;;8.50;3.25;;;16.20;99.90;;;;;;4240575;27;20088;-62
2021/05/02 04:21:23;;;;;;;12.93;3.40;;;16.20;99.90;;;;;;4240751;27;20495;-63
2021/05/02 04:23:24;;;;;;;10.30;3.50;;;16.20;99.90;;;;;;4241022;27;20031;-64
2021/05/02 04:25:25;;;;;;;7.63;2.92;;;16.20;99.90;;;;;;4240462;27;20051;-63
2021/05/02 04:27:27;;;;;;;7.85;3.45;;;16.20;99.90;;;;;;4240895;27;20784;-62
2021/05/02 04:29:29;;;;;;;12.43;3.58;;;16.20;99.90;;;;;;4240451;27;20480;-63
2021/05/02 04:31:30;;;;;;;8.73;3.25;;;16.20;99.90;;;;;;4241083;27;20099;-63
2021/05/02 04:33:31;;;;;;;6.35;3.33;;;16.10;99.90;;;;;;4239797;27;20816;-62
2021/05/02 04:35:32;;;;;;;15.48;4.25;;;16.10;99.90;;;;;;4240821;27;20087;-63
2021/05/02 04:37:34;;;;;;;9.07;3.63;;;16.10;99.90;;;;;;4239669;27;20567;-67
2021/05/02 04:39:35;;;;;;;13.82;4.47;;;16.00;99.90;;;;;;4241146;27;20088;-61
2021/05/02 04:41:36;;;;;;;10.32;4.07;;;16.00;99.90;;;;;;4239587;27;20084;-63
2021/05/02 04:43:37;;;;;;;10.02;4.40;;;15.90;99.90;;;;;;4241175;27;20031;-62
2021/05/02 04:45:38;;;;;;;11.73;4.75;;;15.90;99.90;;;;;;4240161;27;20062;-62
2021/05/02 04:47:39;;;;;;;9.63;3.80;;;15.80;99.90;;;;;;4240601;27;20076;-63
2021/05/02 04:49:40;;;;;;;10.65;4.28;;;15.80;99.90;;;;;;4239343;27;20035;-62
2021/05/02 04:51:42;;;;;;;9.40;3.88;;;15.80;99.90;;;;;;4239950;27;20027;-62
2021/05/02 04:53:44;;;;;;;10.18;4.10;;;15.80;99.90;;;;;;4240268;27;20039;-63
2021/05/02 04:55:46;;;;;;;8.57;3.63;;;15.80;99.90;;;;;;4240066;27;20031;-62
2021/05/02 04:57:47;;;;;;;10.10;4.00;;;15.80;99.90;;;;;;4240604;27;20296;-62
2021/05/02 04:59:48;;;;;;;12.35;4.18;;;15.90;99.90;;;;;;4239367;27;20015;-63
2021/05/02 05:01:49;;;;;;;8.45;4.05;;;15.80;99.90;;;;;;4240358;27;20487;-62
2021/05/02 05:03:53;;;;;;;8.52;4.25;;;15.80;99.90;;;;;;4238815;27;20019;-62
2021/05/02 05:05:54;;;;;;;8.95;3.50;;;15.80;99.90;;;;;;4240220;27;20047;-63
2021/05/02 05:07:56;;;;;;;8.98;4.63;;;15.80;99.90;;;;;;4239030;27;20475;-63
2021/05/02 05:09:57;;;;;;;8.27;3.78;;;15.70;99.90;;;;;;4238793;27;20039;-62
2021/05/02 05:11:58;;;;;;;10.13;4.28;;;15.80;99.90;;;;;;4238984;27;20091;-62
2021/05/02 05:13:59;;;;;;;6.22;3.35;;;15.80;99.90;;;;;;4241013;27;20072;-63
2021/05/02 05:16:01;;;;;;;8.68;3.45;;;16.30;99.90;;;;;;4239315;27;20934;-64
2021/05/02 05:18:02;;;;;;;8.43;3.47;;;16.80;99.90;;;;;;4240501;27;20092;-63
2021/05/02 05:20:05;;;;;;;10.18;3.95;;;17.20;99.90;;;;;;4240086;27;20099;-63
2021/05/02 05:22:06;;;;;;;10.57;3.45;;;17.50;99.90;;;;;;4240072;27;20050;-64
2021/05/02 05:24:08;;;;;;;8.32;3.88;;;17.70;99.90;;;;;;4239777;27;20035;-65
2021/05/02 05:26:09;;;;;;;15.82;4.13;;;17.60;99.90;;;;;;4239613;27;20087;-63
2021/05/02 05:28:11;;;;;;;10.63;3.70;;;17.50;99.90;;;;;;4240182;27;20091;-62
2021/05/02 05:30:13;;;;;;;10.27;4.60;;;17.60;99.90;;;;;;4238974;27;20119;-63
2021/05/02 05:32:14;;;;;;;8.45;3.50;;;17.90;99.90;;;;;;4240062;27;20092;-63
2021/05/02 05:34:16;;;;;;;9.38;3.50;;;18.20;99.90;;;;;;4239445;27;20030;-63
2021/05/02 05:36:17;;;;;;;12.82;3.90;;;18.30;99.90;;;;;;4240145;27;20531;-63
2021/05/02 05:38:18;;;;;;;13.50;4.00;;;18.40;99.90;;;;;;4238341;27;20831;-63
2021/05/02 05:40:20;;;;;;;7.20;3.03;;;18.70;99.90;;;;;;4240216;27;20475;-63
2021/05/02 05:42:21;;;;;;;10.27;3.83;;;18.80;99.90;;;;;;4239441;27;20035;-63
2021/05/02 05:44:22;;;;;;;8.10;3.40;;;18.80;99.90;;;;;;4240759;27;20061;-63
2021/05/02 05:46:23;;;;;;;8.70;3.10;;;18.70;99.90;;;;;;4239675;27;20080;-63
2021/05/02 05:48:24;;;;;;;12.73;4.72;;;18.50;99.90;;;;;;4239209;27;20027;-71
2021/05/02 05:50:27;;;;;;;6.95;3.88;;;18.40;99.90;;;;;;4239077;27;20039;-63
2021/05/02 05:52:28;;;;;;;7.22;2.90;;;18.40;99.90;;;;;;4239359;27;20047;-62
2021/05/02 05:54:29;;;;;;;8.57;3.22;;;18.30;99.90;;;;;;4239697;27;20437;-62
2021/05/02 05:56:30;;;;;;;10.40;3.40;;;18.60;99.90;;;;;;4239093;28;20088;-61
2021/05/02 05:58:32;;;;;;;8.90;3.78;;;18.70;99.90;;;;;;4239268;28;20437;-62
2021/05/02 06:00:33;;;;;;;10.43;3.40;;;18.70;99.90;;;;;;4239010;28;20084;-63
2021/05/02 06:02:35;;;;;;;8.65;3.42;;;18.60;99.90;;;;;;4240152;28;20020;-61
2021/05/02 06:04:36;;;;;;;7.95;3.72;;;18.60;99.90;;;;;;4238922;28;20035;-63
2021/05/02 06:06:38;;;;;;;8.07;3.33;;;18.60;99.90;;;;;;4239915;28;20035;-63
2021/05/02 06:08:39;;;;;;;9.60;3.92;;;18.60;99.90;;;;;;4237672;28;20060;-63
2021/05/02 06:10:40;;;;;;;10.48;3.83;;;18.50;99.90;;;;;;4239429;28;20024;-62
2021/05/02 06:12:41;;;;;;;8.38;3.95;;;18.40;99.90;;;;;;4238491;28;20039;-62
2021/05/02 06:14:42;;;;;;;12.73;4.40;;;18.30;99.90;;;;;;4240283;28;20034;-64
2021/05/02 06:16:44;;;;;;;13.30;4.13;;;18.30;99.90;;;;;;4240748;27;20047;-63
2021/05/02 06:18:45;;;;;;;9.45;4.18;;;18.10;99.90;;;;;;4242728;27;20483;-63
2021/05/02 06:20:46;;;;;;;9.98;4.35;;;18.00;99.90;;;;;;4242252;27;20047;-62
2021/05/02 06:22:49;;;;;;;8.15;4.03;;;17.90;99.90;;;;;;4242314;27;20031;-63
2021/05/02 06:24:52;;;;;;;16.15;5.10;;;18.00;99.90;;;;;;4241866;27;20044;-63
2021/05/02 06:26:53;;;;;;;10.02;3.92;;;18.00;99.90;;;;;;4241651;27;20061;-65
2021/05/02 06:28:54;;;;;;;12.77;4.32;;;18.10;99.90;;;;;;4242399;27;20533;-63
2021/05/02 06:30:55;;;;;;;12.02;3.85;;;18.10;99.90;;;;;;4241743;27;20659;-63
2021/05/02 06:32:56;;;;;;;11.95;4.03;;;18.20;99.90;;;;;;4242383;27;20035;-63
2021/05/02 06:34:58;;;;;;;14.27;5.18;;;18.20;99.90;;;;;;4240953;27;20548;-65
2021/05/02 06:36:59;;;;;;;16.58;4.25;;;18.30;99.90;;;;;;4242755;27;21362;-64
2021/05/02 06:39:00;;;;;;;9.63;4.18;;;18.30;99.90;;;;;;4241618;27;20072;-63
2021/05/02 06:41:02;;;;;;;9.10;3.85;;;18.30;99.90;;;;;;4242288;27;20023;-64
2021/05/02 06:43:03;;;;;;;13.75;4.18;;;18.40;99.90;;;;;;4240071;27;20035;-65
2021/05/02 06:45:05;;;;;;;9.65;4.78;;;18.40;99.90;;;;;;4243306;27;20043;-63
2021/05/02 06:47:07;;;;;;;15.50;5.05;;;18.50;99.90;;;;;;4241437;27;20092;-65
2021/05/02 06:49:08;;;;;;;7.80;4.15;;;18.60;99.90;;;;;;4241238;27;20552;-62
2021/05/02 06:51:09;;;;;;;10.65;3.90;;;18.70;99.90;;;;;;4241670;27;20095;-63
2021/05/02 06:53:11;;;;;;;11.07;4.70;;;18.90;99.90;;;;;;4242032;27;20051;-62
2021/05/02 06:55:12;;;;;;;6.50;4.00;;;19.20;99.90;;;;;;4241617;27;20031;-62
2021/05/02 06:57:13;;;;;;;9.63;3.70;;;19.50;99.90;;;;;;4241874;27;20080;-68
2021/05/02 06:59:14;;;;;;;10.38;4.47;;;19.50;99.90;;;;;;4242131;27;20039;-64
2021/05/02 07:01:16;;;;;;;11.18;4.10;;;19.50;99.90;;;;;;4240693;27;20582;-65
2021/05/02 07:03:17;;;;;;;14.60;4.30;;;19.60;99.90;;;;;;4241989;27;20084;-62
2021/05/02 07:05:18;;;;;;;10.32;4.35;;;19.70;99.90;;;;;;4240990;27;20035;-63
2021/05/02 07:07:20;;;;;;;10.57;3.85;;;19.70;99.90;;;;;;4242019;27;20092;-68
2021/05/02 07:09:21;;;;;;;13.50;4.05;;;19.70;99.90;;;;;;4241373;27;20100;-63
2021/05/02 07:11:23;;;;;;;7.68;3.75;;;19.80;99.90;;;;;;4241903;27;20031;-64
2021/05/02 07:13:24;;;;;;;12.68;5.72;;;19.90;99.90;;;;;;4241153;27;20364;-61
2021/05/02 07:15:25;;;;;;;12.70;4.72;;;20.10;99.90;;;;;;4241542;27;20084;-63
2021/05/02 07:17:27;;;;;;;14.93;4.53;;;20.10;99.90;;;;;;4241110;27;20811;-63
2021/05/02 07:19:28;;;;;;;10.82;4.20;;;20.10;99.90;;;;;;4242226;27;20088;-63
2021/05/02 07:21:29;;;;;;;13.82;4.97;;;20.10;99.90;;;;;;4241569;27;20111;-60
2021/05/02 07:23:30;;;;;;;18.17;5.00;;;20.10;99.90;;;;;;4242424;27;20019;-63
2021/05/02 07:25:31;;;;;;;8.93;3.45;;;20.20;99.90;;;;;;4241109;27;20065;-62
2021/05/02 07:27:33;;;;;;;9.18;3.78;;;20.20;99.90;;;;;;4240703;27;20035;-64
2021/05/02 07:29:34;;;;;;;12.68;3.78;;;20.30;99.90;;;;;;4241133;27;20039;-63
2021/05/02 07:31:35;;;;;;;8.35;3.10;;;20.30;99.90;;;;;;4241240;27;20031;-64
2021/05/02 07:33:40;;;;;;;7.13;3.83;;;20.40;99.90;;;;;;4241802;27;20096;-67
2021/05/02 07:35:42;;;;;;;11.23;4.03;;;20.40;99.90;;;;;;4241687;27;20072;-63
2021/05/02 07:37:43;;;;;;;8.90;3.35;;;20.40;99.90;;;;;;4242597;27;20073;-65
2021/05/02 07:39:44;;;;;;;8.88;3.40;;;20.50;99.90;;;;;;4240817;27;20043;-67
2021/05/02 07:41:46;;;;;;;6.65;3.55;;;20.50;99.90;;;;;;4242023;27;20072;-63
2021/05/02 07:43:47;;;;;;;8.43;3.63;;;20.60;99.90;;;;;;4241066;27;20506;-68
2021/05/02 07:45:48;;;;;;;9.40;3.72;;;20.60;99.90;;;;;;4242392;27;20040;-63
2021/05/02 07:47:50;;;;;;;5.35;3.08;;;20.70;99.90;;;;;;4240550;27;20115;-65
2021/05/02 07:49:51;;;;;;;7.35;2.90;;;20.80;99.90;;;;;;4241628;27;20081;-62
2021/05/02 07:51:52;;;;;;;7.97;3.10;;;20.80;99.90;;;;;;4240032;27;20039;-63
2021/05/02 07:53:53;;;;;;;5.97;2.47;;;20.90;99.90;;;;;;4241757;27;20050;-61
2021/05/02 07:55:54;;;;;;;6.65;2.47;;;21.00;99.90;;;;;;4240645;27;20027;-62
2021/05/02 07:57:55;;;;;;;8.25;2.88;;;21.00;99.90;;;;;;4241432;27;20035;-62
2021/05/02 07:59:57;;;;;;;7.00;2.63;;;21.30;99.90;;;;;;4240402;27;20083;-61
2021/05/02 08:01:58;;;;;;;4.88;2.22;;;21.40;99.90;;;;;;4240374;27;20088;-66
2021/05/02 08:03:59;;;;;;;9.98;3.92;;;21.60;99.90;;;;;;4240819;27;20027;-62
2021/05/02 08:06:00;;;;;;;8.93;2.15;;;21.60;99.90;;;;;;4240407;27;20095;-71
2021/05/02 08:08:02;;;;;;;17.23;6.18;;;21.70;99.90;;;;;;4241041;27;20056;-66
2021/05/02 08:10:04;;;;;;;8.80;2.40;;;21.90;99.90;;;;;;4239881;27;20868;-73
2021/05/02 08:12:07;;;;;;;9.88;2.30;;;22.00;99.90;;;;;;4241301;27;20035;-67
2021/05/02 08:14:08;;;;;;;7.70;2.25;;;22.00;99.90;;;;;;4240186;27;20027;-63
2021/05/02 08:16:09;;;;;;;9.77;2.75;;;22.10;99.90;;;;;;4240873;27;20031;-67
2021/05/02 08:18:11;;;;;;;16.30;3.03;;;22.10;99.90;;;;;;4239909;27;20031;-64
2021/05/02 08:20:14;;;;;;;4.45;1.80;;;22.00;99.90;;;;;;4241487;27;20034;-62
2021/05/02 08:22:16;;;;;;;6.32;1.58;;;22.00;99.90;;;;;;4238276;27;20046;-64
2021/05/02 08:24:17;;;;;;;3.15;0.80;;;22.00;99.90;;;;;;4241151;27;20535;-64
2021/05/02 08:26:18;;;;;;;5.82;1.45;;;22.10;99.90;;;;;;4240245;27;20055;-64
2021/05/02 08:28:19;;;;;;;3.88;0.90;;;22.20;99.90;;;;;;4240964;27;20031;-63
2021/05/02 08:30:21;;;;;;;1.85;1.05;;;22.30;99.90;;;;;;4239689;27;20092;-64
2021/05/02 08:32:22;;;;;;;4.63;1.30;;;;;;;;;;4240668;27;20046;-63
2021/05/02 08:34:24;;;;;;;3.92;0.90;;;;;;;;;;4240515;27;20031;-63
2021/05/02 08:36:25;;;;;;;4.57;1.25;;;;;;;;;;4240232;27;20077;-64
2021/05/02 08:38:27;;;;;;;6.43;1.20;;;;;;;;;;4241139;27;20039;-69
2021/05/02 08:40:28;;;;;;;7.63;1.13;;;;;;;;;;4240173;27;20067;-67
2021/05/02 08:42:29;;;;;;;8.10;1.70;;;;;;;;;;4240215;27;20019;-69
2021/05/02 08:44:31;;;;;;;7.22;1.40;;;;;;;;;;4240395;27;20044;-62
2021/05/02 08:46:32;;;;;;;7.70;1.08;;;;;;;;;;4240685;27;20112;-68
2021/05/02 08:48:34;;;;;;;4.32;0.90;;;;;;;;;;4239878;27;20096;-62
2021/05/02 08:50:36;;;;;;;5.50;0.80;;;;;;;;;;4240455;27;20039;-62
2021/05/02 08:52:38;;;;;;;9.00;1.70;;;;;;;;;;4239616;27;20603;-63
2021/05/02 08:54:39;;;;;;;9.77;1.80;;;;;;;;;;4240408;27;20035;-63
2021/05/02 08:56:41;;;;;;;4.30;1.13;;;;;;;;;;4239597;27;20108;-62
2021/05/02 08:58:42;;;;;;;2.17;0.90;;;;;;;;;;4240595;27;20076;-62
2021/05/02 09:00:44;;;;;;;6.95;1.85;;;;;;;;;;4240233;27;20031;-61
2021/05/02 09:02:56;;;;;;;8.68;1.67;;;;;;;;;;4240308;27;20031;-61
2021/05/02 09:05:05;;;;;;;9.63;1.55;;;;;;;;;;4237688;27;20103;-65
2021/05/02 09:07:15;;;;;;;8.93;1.35;;;;;;;;;;4239730;27;20031;-61
2021/05/02 09:09:16;;;;;;;9.38;1.02;;;;;;;;;;4239121;27;20035;-63
2021/05/02 09:11:30;;;;;;;10.18;1.38;;;;;;;;;;4234017;27;20081;-62
2021/05/02 09:13:31;;;;;;;8.13;1.80;;;;;;;;;;4222665;28;20028;-57
2021/05/02 09:15:33;;;;;;;8.63;1.48;;;;;;;;;;4221802;28;20061;-65
2021/05/02 09:17:49;;;;;;;5.82;1.23;;;;;;;;;;4222951;28;20024;-65
2021/05/02 09:19:51;;;;;;;10.05;1.88;;;;;;;;;;4232656;27;20076;-61
2021/05/02 09:21:54;;;;;;;5.68;1.35;;;;;;;;;;4239490;27;20043;-62
2021/05/02 09:23:56;;;;;;;6.97;1.77;;;;;;;;;;4239122;27;20539;-62
2021/05/02 09:25:57;;;;;;;9.45;1.70;;;;;;;;;;4239545;27;20047;-61
2021/05/02 09:27:58;;;;;;;24.38;7.88;;;;;;;;;;4238929;27;20056;-62
2021/05/02 09:30:13;;;;;;;6.53;2.05;;;;;;;;;;4240119;27;20139;-62
2021/05/02 09:32:15;;;;;;;5.22;1.02;;;;;;;;;;4239110;27;20439;-65
2021/05/02 09:34:18;;;;;;;11.07;1.20;;;;;;;;;;4240252;27;20035;-62
2021/05/02 09:36:21;;;;;;;10.57;1.55;;;;;;;;;;4238966;27;20100;-62
2021/05/02 09:38:22;;;;;;;7.90;1.38;;;;;;;;;;4240085;27;20043;-62
2021/05/02 09:40:23;;;;;;;7.43;1.75;;;;;;;;;;4238707;27;20088;-61
2021/05/02 09:42:31;;;;;;;6.15;1.60;;;;;;;;;;4239716;27;20023;-61
2021/05/02 09:44:39;;;;;;;10.07;1.20;;;;;;;;;;4238962;27;20166;-62
2021/05/02 09:46:42;;;;;;;7.93;1.05;;;;;;;;;;4238743;27;20119;-66
2021/05/02 09:48:44;;;;;;;9.63;1.25;;;;;;;;;;4238915;27;20288;-61
2021/05/02 09:50:45;;;;;;;10.95;1.88;;;;;;;;;;4240034;27;20031;-61
2021/05/02 09:52:52;;;;;;;8.55;1.70;;;;;;;;;;4238924;27;20091;-61
2021/05/02 09:54:53;;;;;;;5.35;1.63;;;;;;;;;;4239668;27;20023;-61
2021/05/02 09:56:55;;;;;;;10.20;1.88;;;;;;;;;;4237778;28;20428;-61
2021/05/02 09:58:56;;;;;;;11.52;2.20;;;;;;;;;;4239495;27;20096;-61
2021/05/02 10:00:58;;;;;;;5.38;1.02;;;;;;;;;;4239199;28;20479;-67
2021/05/02 10:03:01;;;;;;;7.68;1.27;;;;;;;;;;4238924;28;20027;-61
2021/05/02 10:05:09;;;;;;;6.97;1.65;;;;;;;;;;4239658;28;20114;-62
2021/05/02 10:07:11;;;;;;;5.60;0.85;;;;;;;;;;4238944;28;20043;-61
2021/05/02 10:09:16;;;;;;;3.03;0.70;;;;;;;;;;4239998;27;20429;-61
2021/05/02 10:11:17;;;;;;;6.18;1.27;;;;;;;;;;4238888;28;20096;-66
2021/05/02 10:13:19;;;;;;;4.90;0.80;;;;;;;;;;4239753;28;20065;-62
2021/05/02 10:15:21;;;;;;;8.38;1.20;;;;;;;;;;4239163;28;20023;-62
2021/05/02 10:17:24;;;;;;;6.18;1.10;;;;;;;;;;4239902;28;20027;-62
2021/05/02 10:19:25;;;;;;;4.60;1.00;;;;;;;;;;4239043;27;20048;-61
2021/05/02 10:21:27;;;;;;;6.55;1.33;;;;;;;;;;4239654;28;20679;-61
2021/05/02 10:23:28;;;;;;;7.45;1.40;;;;;;;;;;4235995;28;20082;-67
2021/05/02 10:25:30;;;;;;;73.30;47.25;;;;;;;;;;4239641;27;20088;-62
2021/05/02 10:27:32;;;;;;;34.80;14.93;;;;;;;;;;4238439;27;20043;-61
2021/05/02 10:29:34;;;;;;;11.18;1.30;;;;;;;;;;4239586;28;20100;-63
2021/05/02 10:31:41;;;;;;;7.30;1.40;;;;;;;;;;4237081;28;20024;-62
2021/05/02 10:33:43;;;;;;;7.00;1.25;;;;;;;;;;4239651;28;20015;-63
2021/05/02 10:35:46;;;;;;;11.50;1.23;;;;;;;;;;4238566;28;20622;-65
2021/05/02 10:37:57;;;;;;;8.93;1.20;;;;;;;;;;4239166;28;20031;-62
2021/05/02 10:40:06;;;;;;;6.53;1.00;;;;;;;;;;4238955;27;20035;-65
2021/05/02 10:42:07;;;;;;;7.05;1.60;;;;;;;;;;4239238;27;20043;-62
2021/05/02 10:44:14;;;;;;;6.85;0.93;;;;;;;;;;4239573;27;20440;-62
2021/05/02 10:46:34;;;;;;;5.43;1.30;;;;;;;;;;4238944;28;20088;-62
2021/05/02 10:48:37;;;;;;;13.85;1.58;;;;;;;;;;4239102;27;20376;-61
2021/05/02 10:50:42;;;;;;;8.65;1.30;;;;;;;;;;4237211;27;20788;-68
2021/05/02 10:53:00;;;;;;;11.27;1.67;;;;;;;;;;4228964;27;20483;-62
2021/05/02 10:55:08;;;;;;;10.30;1.60;;;;;;;;;;4222011;28;20911;-62
2021/05/02 10:57:29;;;;;;;6.25;1.60;;;;;;;;;;4227164;28;20946;-67